createdAt,value
2018-01-08T00:02:57.113Z,-2.60
2018-01-08T00:06:07.015Z,-2.56
2018-01-08T00:09:17.160Z,-2.72
2018-01-08T00:12:27.205Z,-2.73
2018-01-08T00:15:38.723Z,-2.57
2018-01-08T00:18:55.680Z,-2.61
2018-01-08T00:22:07.179Z,-2.74
2018-01-08T00:25:21.576Z,-2.77
2018-01-08T00:28:35.145Z,-2.77
2018-01-08T00:31:46.820Z,-2.69
2018-01-08T00:34:57.493Z,-2.84
2018-01-08T00:38:08.435Z,-2.78
2018-01-08T00:41:20.166Z,-2.80
2018-01-08T00:44:31.451Z,-2.81
2018-01-08T00:47:41.372Z,-2.69
2018-01-08T00:50:49.778Z,-2.76
2018-01-08T00:53:59.097Z,-2.84
2018-01-08T00:57:09.819Z,-2.94
2018-01-08T01:00:19.460Z,-2.97
2018-01-08T01:03:29.490Z,-3.03
2018-01-08T01:06:41.140Z,-2.89
2018-01-08T01:09:50.420Z,-2.89
2018-01-08T01:13:02.628Z,-2.81
2018-01-08T01:16:14.214Z,-3.04
2018-01-08T01:19:26.836Z,-3.12
2018-01-08T01:22:36.919Z,-3.13
2018-01-08T01:25:50.059Z,-3.18
2018-01-08T01:29:02.012Z,-3.04
2018-01-08T01:32:12.224Z,-3.23
2018-01-08T01:35:24.446Z,-3.03
2018-01-08T01:38:36.515Z,-3.17
2018-01-08T01:41:47.271Z,-3.29
2018-01-08T01:44:57.014Z,-3.26
2018-01-08T01:48:07.870Z,-3.18
2018-01-08T01:51:18.719Z,-3.36
2018-01-08T01:54:30.317Z,-3.26
2018-01-08T01:57:41.075Z,-3.34
2018-01-08T02:00:56.268Z,-3.40
2018-01-08T02:04:06.628Z,-3.35
2018-01-08T02:07:18.282Z,-3.39
2018-01-08T02:10:27.274Z,-3.36
2018-01-08T02:13:39.487Z,-3.49
2018-01-08T02:16:49.902Z,-3.56
2018-01-08T02:20:00.362Z,-3.54
2018-01-08T02:23:10.891Z,-3.46
2018-01-08T02:26:20.967Z,-3.69
2018-01-08T02:29:32.557Z,-3.63
2018-01-08T02:32:43.613Z,-3.65
2018-01-08T02:35:54.536Z,-3.66
2018-01-08T02:39:05.594Z,-3.65
2018-01-08T02:42:22.020Z,-3.74
2018-01-08T02:45:33.355Z,-3.73
2018-01-08T02:48:45.803Z,-3.79
2018-01-08T02:51:57.415Z,-3.74
2018-01-08T02:55:10.323Z,-3.75
2018-01-08T02:58:22.188Z,-3.83
2018-01-08T03:01:32.843Z,-3.77
2018-01-08T03:04:43.637Z,-3.76
2018-01-08T03:07:55.136Z,-3.69
2018-01-08T03:11:07.547Z,-3.77
2018-01-08T03:14:18.138Z,-3.91
2018-01-08T03:20:51.017Z,-3.93
2018-01-08T03:24:02.068Z,-3.83
2018-01-08T03:27:11.959Z,-3.90
2018-01-08T03:30:21.030Z,-3.85
2018-01-08T03:33:33.480Z,-3.87
2018-01-08T03:36:45.524Z,-3.93
2018-01-08T03:39:57.554Z,-3.83
2018-01-08T03:43:09.101Z,-3.87
2018-01-08T03:46:20.905Z,-3.71
2018-01-08T03:49:31.277Z,-3.81
2018-01-08T03:52:42.149Z,-3.77
2018-01-08T03:55:57.138Z,-3.91
2018-01-08T03:59:08.022Z,-3.77
2018-01-08T04:02:17.650Z,-3.70
2018-01-08T04:05:30.158Z,-3.92
2018-01-08T04:08:40.531Z,-3.80
2018-01-08T04:11:50.987Z,-3.86
2018-01-08T04:15:05.161Z,-3.62
2018-01-08T04:18:15.696Z,-3.57
2018-01-08T04:21:26.220Z,-3.68
2018-01-08T04:24:39.400Z,-3.74
2018-01-08T04:28:05.838Z,-3.79
2018-01-08T04:31:17.317Z,-3.77
2018-01-08T04:34:27.580Z,-3.78
2018-01-08T04:37:38.262Z,-3.79
2018-01-08T04:40:48.713Z,-3.79
2018-01-08T04:43:59.151Z,-3.75
2018-01-08T04:47:09.607Z,-3.67
2018-01-08T04:50:22.100Z,-3.80
2018-01-08T04:53:37.064Z,-3.68
2018-01-08T04:56:48.330Z,-3.72
2018-01-08T04:59:58.676Z,-3.73
2018-01-08T05:03:10.665Z,-3.84
2018-01-08T05:06:20.415Z,-3.82
2018-01-08T05:09:31.089Z,-3.74
2018-01-08T05:12:42.828Z,-3.89
2018-01-08T05:15:51.777Z,-3.80
2018-01-08T05:19:01.141Z,-3.74
2018-01-08T05:22:12.557Z,-3.88
2018-01-08T05:25:21.364Z,-3.75
2018-01-08T05:28:31.509Z,-3.75
2018-01-08T05:31:52.269Z,-3.78
2018-01-08T05:35:21.975Z,-3.80
2018-01-08T05:38:57.019Z,-3.81
2018-01-08T05:42:07.006Z,-3.81
2018-01-08T05:45:16.981Z,-3.76
2018-01-08T05:48:26.811Z,-3.89
2018-01-08T05:51:36.984Z,-3.92
2018-01-08T05:54:46.449Z,-3.95
2018-01-08T05:57:55.800Z,-3.91
2018-01-08T06:01:06.157Z,-3.92
2018-01-08T06:04:16.055Z,-4.00
2018-01-08T06:07:24.804Z,-3.94
2018-01-08T06:10:34.349Z,-3.95
2018-01-08T06:13:43.642Z,-3.85
2018-01-08T06:16:55.271Z,-3.89
2018-01-08T06:20:05.731Z,-3.81
2018-01-08T06:23:34.214Z,-3.92
2018-01-08T06:26:47.254Z,-3.86
2018-01-08T06:30:00.554Z,-3.94
2018-01-08T06:33:08.517Z,-3.94
2018-01-08T06:36:24.094Z,-4.00
2018-01-08T06:39:35.277Z,-4.11
2018-01-08T06:42:46.810Z,-3.92
2018-01-08T06:45:57.444Z,-3.97
2018-01-08T06:49:08.637Z,-3.98
2018-01-08T06:52:18.820Z,-3.96
2018-01-08T06:55:31.094Z,-4.01
2018-01-08T06:58:44.740Z,-4.09
2018-01-08T07:01:58.454Z,-4.07
2018-01-08T07:05:11.446Z,-4.15
2018-01-08T07:08:20.044Z,-4.09
2018-01-08T07:11:30.721Z,-4.12
2018-01-08T07:14:43.412Z,-4.13
2018-01-08T07:17:54.960Z,-4.16
2018-01-08T07:21:04.667Z,-4.14
2018-01-08T07:24:16.891Z,-4.15
2018-01-08T07:27:27.410Z,-4.23
2018-01-08T07:30:38.309Z,-4.30
2018-01-08T07:33:48.204Z,-4.25
2018-01-08T07:36:59.809Z,-4.22
2018-01-08T07:40:10.187Z,-4.26
2018-01-08T07:43:20.908Z,-4.35
2018-01-08T07:46:33.383Z,-4.26
2018-01-08T07:49:45.556Z,-4.27
2018-01-08T07:52:58.650Z,-4.46
2018-01-08T07:56:08.601Z,-4.48
2018-01-08T07:59:18.087Z,-4.32
2018-01-08T08:09:48.215Z,-4.34
2018-01-08T08:13:00.070Z,-4.35
2018-01-08T08:16:08.974Z,-4.35
2018-01-08T08:19:20.684Z,-4.33
2018-01-08T08:22:29.949Z,-4.41
2018-01-08T08:25:39.882Z,-4.49
2018-01-08T08:28:50.925Z,-4.38
2018-01-08T08:32:01.156Z,-4.41
2018-01-08T08:35:12.735Z,-4.36
2018-01-08T08:38:23.306Z,-4.38
2018-01-08T08:41:37.705Z,-4.40
2018-01-08T08:44:48.758Z,-4.40
2018-01-08T08:47:58.300Z,-4.32
2018-01-08T08:51:10.054Z,-4.32
2018-01-08T08:54:21.835Z,-4.27
2018-01-08T08:57:34.604Z,-4.27
2018-01-08T09:00:45.832Z,-4.20
2018-01-08T09:03:55.487Z,-4.22
2018-01-08T09:07:07.724Z,-4.08
2018-01-08T09:10:17.461Z,-4.04
2018-01-08T09:13:28.771Z,-4.02
2018-01-08T09:16:38.622Z,-3.94
2018-01-08T09:19:48.800Z,-3.97
2018-01-08T09:23:00.124Z,-3.83
2018-01-08T09:26:12.401Z,-3.86
2018-01-08T09:29:21.510Z,-3.83
2018-01-08T09:32:33.726Z,-3.75
2018-01-08T09:35:46.482Z,-3.66
2018-01-08T09:38:55.504Z,-3.63
2018-01-08T09:42:09.332Z,-3.60
2018-01-08T09:45:20.252Z,-3.55
2018-01-08T09:48:30.033Z,-3.42
2018-01-08T09:51:47.375Z,-3.48
2018-01-08T09:54:59.292Z,-3.49
2018-01-08T09:58:12.925Z,-3.38
2018-01-08T10:01:24.140Z,-3.29
2018-01-08T10:04:44.151Z,-3.35
2018-01-08T10:08:11.305Z,-3.33
2018-01-08T10:11:36.038Z,-3.24
2018-01-08T10:15:04.579Z,-3.20
2018-01-08T10:18:29.158Z,-3.12
2018-01-08T10:21:40.207Z,-3.12
2018-01-08T10:24:50.886Z,-3.07
2018-01-08T10:28:01.931Z,-3.03
2018-01-08T10:31:14.229Z,-2.90
2018-01-08T10:34:25.141Z,-2.94
2018-01-08T10:37:36.093Z,-2.78
2018-01-08T10:40:48.392Z,-2.79
2018-01-08T10:44:05.035Z,-2.76
2018-01-08T10:47:26.360Z,-2.77
2018-01-08T10:51:02.648Z,-2.68
2018-01-08T10:54:20.246Z,-2.62
2018-01-08T10:57:31.410Z,-2.63
2018-01-08T11:00:40.900Z,-2.54
2018-01-08T11:04:13.128Z,-2.54
2018-01-08T11:07:22.974Z,-2.50
2018-01-08T11:10:42.272Z,-2.46
2018-01-08T11:13:54.443Z,-2.31
2018-01-08T11:17:07.185Z,-2.37
2018-01-08T11:20:19.022Z,-2.29
2018-01-08T11:23:28.823Z,-2.28
2018-01-08T11:26:41.286Z,-2.19
2018-01-08T11:29:54.091Z,-2.21
2018-01-08T11:33:06.492Z,-2.19
2018-01-08T11:36:16.090Z,-2.16
2018-01-08T11:39:27.034Z,-2.07
2018-01-08T11:42:37.394Z,-1.96
2018-01-08T11:45:51.881Z,-1.92
2018-01-08T11:49:00.854Z,-1.86
2018-01-08T11:52:09.270Z,-1.82
2018-01-08T11:55:32.236Z,-1.86
2018-01-08T11:58:39.694Z,-1.79
2018-01-08T12:01:49.281Z,-1.77
2018-01-08T12:04:59.242Z,-1.77
2018-01-08T12:08:07.933Z,-1.71
2018-01-08T12:11:18.880Z,-1.67
2018-01-08T12:14:28.613Z,-1.55
2018-01-08T12:17:37.980Z,-1.45
2018-01-08T12:20:45.226Z,-1.39
2018-01-08T12:23:54.590Z,-1.37
2018-01-08T12:27:05.423Z,-1.33
2018-01-08T12:30:17.306Z,-1.29
2018-01-08T12:33:28.290Z,-1.27
2018-01-08T12:36:36.845Z,-1.22
2018-01-08T12:39:48.490Z,-1.16
2018-01-08T12:43:00.123Z,-1.15
2018-01-08T12:46:11.909Z,-1.13
2018-01-08T12:49:23.703Z,-1.14
2018-01-08T12:52:35.086Z,-1.08
2018-01-08T12:55:50.910Z,-1.05
2018-01-08T12:59:02.821Z,-1.06
2018-01-08T13:02:14.265Z,-1.03
2018-01-08T13:05:24.862Z,-0.98
2018-01-08T13:08:34.399Z,-0.99
2018-01-08T13:11:46.544Z,-0.97
2018-01-08T13:14:57.032Z,-1.00
2018-01-08T13:18:06.271Z,-0.96
2018-01-08T13:21:19.280Z,-0.93
2018-01-08T13:24:30.179Z,-0.90
2018-01-08T13:27:42.847Z,-0.93
2018-01-08T13:30:54.264Z,-0.92
2018-01-08T13:34:04.571Z,-0.88
2018-01-08T13:37:19.640Z,-0.88
2018-01-08T13:40:29.937Z,-0.87
2018-01-08T13:43:39.356Z,-0.94
2018-01-08T13:46:52.700Z,-0.92
2018-01-08T13:50:02.971Z,-0.89
2018-01-08T13:53:17.090Z,-0.84
2018-01-08T13:56:35.569Z,-0.78
2018-01-08T13:59:48.963Z,-0.78
2018-01-08T14:03:06.624Z,-0.80
2018-01-08T14:06:17.402Z,-0.77
2018-01-08T14:09:30.743Z,-0.75
2018-01-08T14:12:40.726Z,-0.79
2018-01-08T14:15:50.239Z,-0.77
2018-01-08T14:19:02.012Z,-0.80
2018-01-08T14:22:13.193Z,-0.99
2018-01-08T14:25:25.996Z,-1.02
2018-01-08T14:28:36.621Z,-1.06
2018-01-08T14:31:47.313Z,-1.12
2018-01-08T14:34:56.641Z,-1.14
2018-01-08T14:38:08.020Z,-1.08
2018-01-08T14:41:19.767Z,-1.13
2018-01-08T14:44:31.978Z,-1.15
2018-01-08T14:47:42.019Z,-1.18
2018-01-08T14:50:56.904Z,-1.21
2018-01-08T14:54:06.946Z,-1.24
2018-01-08T14:57:34.667Z,-1.19
2018-01-08T15:00:45.811Z,-1.20
2018-01-08T15:03:56.137Z,-1.15
2018-01-08T15:07:06.995Z,-1.20
2018-01-08T15:10:18.633Z,-1.21
2018-01-08T15:13:28.903Z,-1.27
2018-01-08T15:16:40.444Z,-1.29
2018-01-08T15:19:52.467Z,-1.32
2018-01-08T15:23:02.554Z,-1.34
2018-01-08T15:26:14.928Z,-1.40
2018-01-08T15:29:29.216Z,-1.34
2018-01-08T15:32:39.869Z,-1.37
2018-01-08T15:35:50.455Z,-1.39
2018-01-08T15:39:00.483Z,-1.45
2018-01-08T15:42:14.908Z,-1.40
2018-01-08T15:45:24.432Z,-1.47
2018-01-08T15:48:35.263Z,-1.43
2018-01-08T15:51:45.658Z,-1.50
2018-01-08T15:54:55.470Z,-1.50
2018-01-08T15:58:06.452Z,-1.55
2018-01-08T16:01:21.275Z,-1.60
2018-01-08T16:04:31.450Z,-1.62
2018-01-08T16:07:41.304Z,-1.57
2018-01-08T16:10:52.505Z,-1.57
2018-01-08T16:14:04.122Z,-1.58
2018-01-08T16:17:13.147Z,-1.63
2018-01-08T16:20:23.616Z,-1.59
2018-01-08T16:23:33.319Z,-1.66
2018-01-08T16:26:44.032Z,-1.63
2018-01-08T16:29:55.276Z,-1.58
2018-01-08T16:33:07.742Z,-1.63
2018-01-08T16:36:16.938Z,-1.62
2018-01-08T16:39:25.237Z,-1.57
2018-01-08T16:42:33.407Z,-1.60
2018-01-08T16:49:00.912Z,-1.59
2018-01-08T16:52:07.757Z,-1.67
2018-01-08T16:55:17.161Z,-1.66
2018-01-08T16:58:26.939Z,-1.66
2018-01-08T17:01:35.329Z,-1.67
2018-01-08T17:04:44.080Z,-1.67
2018-01-08T17:07:54.822Z,-1.71
2018-01-08T17:11:02.914Z,-1.76
2018-01-08T17:14:15.106Z,-1.73
2018-01-08T17:17:24.377Z,-1.78
2018-01-08T17:20:32.856Z,-1.75
2018-01-08T17:23:42.002Z,-1.76
2018-01-08T17:26:50.853Z,-1.72
2018-01-08T17:30:01.354Z,-1.78
2018-01-08T17:33:11.748Z,-1.81
2018-01-08T17:36:21.025Z,-1.76
2018-01-08T17:39:28.359Z,-1.80
2018-01-08T17:42:36.887Z,-1.71
2018-01-08T17:45:50.522Z,-1.87
2018-01-08T17:48:59.878Z,-1.84
2018-01-08T17:52:13.854Z,-1.87
2018-01-08T17:55:25.217Z,-1.87
2018-01-08T17:58:34.480Z,-1.95
2018-01-08T18:01:47.246Z,-1.80
2018-01-08T18:04:56.750Z,-1.76
2018-01-08T18:08:10.473Z,-1.84
2018-01-08T18:11:20.642Z,-1.86
2018-01-08T18:14:32.318Z,-1.98
2018-01-08T18:17:42.887Z,-1.88
2018-01-08T18:20:55.018Z,-1.87
2018-01-08T18:24:03.735Z,-1.88
2018-01-08T18:27:24.648Z,-1.92
2018-01-08T18:30:35.889Z,-1.88
2018-01-08T18:33:46.818Z,-1.92
2018-01-08T18:36:56.869Z,-1.92
2018-01-08T18:40:05.193Z,-1.99
2018-01-08T18:43:13.151Z,-1.98
2018-01-08T18:46:30.089Z,-2.02
2018-01-08T18:49:41.866Z,-1.94
2018-01-08T18:52:53.156Z,-2.03
2018-01-08T18:56:09.101Z,-1.97
2018-01-08T18:59:29.918Z,-2.05
2018-01-08T19:03:06.201Z,-2.04
2018-01-08T19:06:41.627Z,-1.99
2018-01-08T19:13:35.817Z,-2.03
2018-01-08T19:16:58.575Z,-1.99
2018-01-08T19:20:14.466Z,-2.17
2018-01-08T19:23:34.889Z,-2.07
2018-01-08T19:26:54.919Z,-2.12
2018-01-08T19:30:12.034Z,-2.08
2018-01-08T19:33:38.568Z,-2.05
2018-01-08T19:37:01.047Z,-2.10
2018-01-08T19:40:34.105Z,-2.14
2018-01-08T19:47:41.098Z,-2.17
2018-01-08T19:51:17.566Z,-2.18
2018-01-08T19:54:59.426Z,-2.21
2018-01-08T19:58:17.356Z,-2.11
2018-01-08T20:01:40.155Z,-2.17
2018-01-08T20:04:59.372Z,-2.10
2018-01-08T20:08:22.882Z,-2.13
2018-01-08T20:11:36.304Z,-2.08
2018-01-08T20:15:02.675Z,-2.22
2018-01-08T20:18:25.843Z,-2.23
2018-01-08T20:21:36.693Z,-2.16
2018-01-08T20:24:46.816Z,-2.22
2018-01-08T20:27:54.979Z,-2.19
2018-01-08T20:31:22.187Z,-2.17
2018-01-08T20:34:49.931Z,-2.28
2018-01-08T20:41:55.983Z,-2.27
2018-01-08T20:45:20.116Z,-2.34
2018-01-08T20:48:42.526Z,-2.37
2018-01-08T20:52:06.734Z,-2.39
2018-01-08T20:55:43.228Z,-2.32
2018-01-08T20:59:03.127Z,-2.35
2018-01-08T21:02:17.480Z,-2.30
2018-01-08T21:05:29.647Z,-2.30
2018-01-08T21:08:39.729Z,-2.32
2018-01-08T21:12:02.972Z,-2.35
2018-01-08T21:15:20.008Z,-2.35
2018-01-08T21:18:30.776Z,-2.32
2018-01-08T21:21:41.017Z,-2.31
2018-01-08T21:24:52.675Z,-2.33
2018-01-08T21:28:06.105Z,-2.34
2018-01-08T21:31:20.682Z,-2.33
2018-01-08T21:34:30.750Z,-2.30
2018-01-08T21:37:40.225Z,-2.37
2018-01-08T21:40:53.961Z,-2.32
2018-01-08T21:44:03.821Z,-2.35
2018-01-08T21:47:13.521Z,-2.44
2018-01-08T21:50:23.381Z,-2.37
2018-01-08T21:53:31.205Z,-2.29
2018-01-08T21:56:39.507Z,-2.42
2018-01-08T22:03:05.719Z,-2.36
2018-01-08T22:06:16.927Z,-2.36
2018-01-08T22:09:26.852Z,-2.17
2018-01-08T22:12:38.217Z,-2.38
2018-01-08T22:15:51.059Z,-2.36
2018-01-08T22:19:06.293Z,-2.33
2018-01-08T22:22:14.853Z,-2.30
2018-01-08T22:25:24.475Z,-2.24
2018-01-08T22:28:36.584Z,-2.22
2018-01-08T22:31:48.143Z,-2.30
2018-01-08T22:34:57.287Z,-2.20
2018-01-08T22:38:09.601Z,-2.28
2018-01-08T22:41:21.624Z,-2.23
2018-01-08T22:44:30.049Z,-2.24
2018-01-08T22:47:40.154Z,-2.21
2018-01-08T22:50:51.314Z,-2.17
2018-01-08T22:54:00.284Z,-2.27
2018-01-08T22:57:10.947Z,-2.25
2018-01-08T23:00:22.059Z,-2.30
2018-01-08T23:03:32.383Z,-2.28
2018-01-08T23:06:42.505Z,-2.25
2018-01-08T23:09:55.392Z,-2.25
2018-01-08T23:13:05.101Z,-2.28
2018-01-08T23:16:14.176Z,-2.24
2018-01-08T23:19:26.172Z,-2.23
2018-01-08T23:22:40.270Z,-2.22
2018-01-08T23:25:52.863Z,-2.23
2018-01-08T23:29:06.157Z,-2.23
2018-01-08T23:32:16.966Z,-2.21
2018-01-08T23:35:25.762Z,-2.26
2018-01-08T23:38:39.211Z,-2.24
2018-01-08T23:41:55.401Z,-2.21
2018-01-08T23:48:38.392Z,-2.24
2018-01-08T23:51:52.119Z,-1.97
2018-01-08T23:55:02.499Z,-1.93
2018-01-08T23:58:11.997Z,-1.90
